Terri-ann — WBD3593 — position and weather

sailwx.info

Track history (hours):
 
Tides and Currents Weather Stations Pressure Air Temp Water Temp Dewpoint Dewpoint Depression Visibility Wind Speed Wind Dir Waves Ship Positions

Terri-ann

More information available from US FCC via Universal Licensing System and Coast Guard Vessel Documentation Center.

Last reported at 2014-Jul-24 02:30 UTC. Time now 2014-Aug-02 08:46 UTC.
Position N 41°01' W 068°47'.
Warning: this ship's position is 9 days out of date.

Length 21 m.

Type: Fishing. MMSI: 367149920.

Date/timePositionNaut miles runAvg speedWind from/ knotsBaromVisibWave heightAir tempDewpointWater temp
2014-Jul-24 02:30N 41°01' W 068°47'2 1.9
2014-Jul-24 01:33N 41°03' W 068°47'1 0.8
2014-Jul-24 00:32N 41°04' W 068°47'13 1.0
2014-Jul-23 11:32N 41°09' W 068°31'5 4.2
2014-Jul-23 10:16N 41°06' W 068°37'3 4.0
2014-Jul-23 09:32N 41°09' W 068°36'5 5.1
2014-Jul-23 08:33N 41°04' W 068°38'8 8.3
2014-Jul-23 07:34N 40°57' W 068°43'8 7.6
2014-Jul-23 06:33N 40°50' W 068°47'7 7.0
2014-Jul-23 05:33N 40°43' W 068°51'7 7.2
2014-Jul-23 04:33N 40°37' W 068°56'8 7.5
2014-Jul-23 03:31N 40°30' W 069°00'44 2.6
2014-Jul-22 10:33N 40°04' W 069°47'2 1.1
2014-Jul-22 09:05N 40°06' W 069°48'61 6.8
2014-Jul-22 00:08N 40°57' W 070°31'  
2014-Jul-18 15:22N 40°02' W 069°37'3 2.8
2014-Jul-18 14:20N 40°02' W 069°33'5 0.5
2014-Jul-18 04:06N 39°58' W 069°30'0 0.3
2014-Jul-18 03:32N 39°58' W 069°30'0 0.3
2014-Jul-18 02:20N 39°58' W 069°29'16 2.6
2014-Jul-17 20:09N 40°05' W 069°48'  
2014-Jul-15 02:22N 41°03' W 070°35'  
Track history (hours):
 
Tides and Currents Weather Stations Pressure Air Temp Water Temp Dewpoint Dewpoint Depression Visibility Wind Speed Wind Dir Waves Ship Positions

Terri-ann

More information available from US FCC via Universal Licensing System and Coast Guard Vessel Documentation Center.

Last reported at 2014-Jul-24 02:30 UTC. Time now 2014-Aug-02 08:46 UTC.
Position N 41°01' W 068°47'.
Warning: this ship's position is 9 days out of date.

Length 21 m.

Type: Fishing. MMSI: 367149920.

Date/timePositionNaut miles runAvg speedWind from/ knotsBaromVisibWave heightAir tempDewpointWater temp
2014-Jul-24 02:30N 41°01' W 068°47'2 1.9
2014-Jul-24 01:33N 41°03' W 068°47'1 0.8
2014-Jul-24 00:32N 41°04' W 068°47'13 1.0
2014-Jul-23 11:32N 41°09' W 068°31'5 4.2
2014-Jul-23 10:16N 41°06' W 068°37'3 4.0
2014-Jul-23 09:32N 41°09' W 068°36'5 5.1
2014-Jul-23 08:33N 41°04' W 068°38'8 8.3
2014-Jul-23 07:34N 40°57' W 068°43'8 7.6
2014-Jul-23 06:33N 40°50' W 068°47'7 7.0
2014-Jul-23 05:33N 40°43' W 068°51'7 7.2
2014-Jul-23 04:33N 40°37' W 068°56'8 7.5
2014-Jul-23 03:31N 40°30' W 069°00'44 2.6
2014-Jul-22 10:33N 40°04' W 069°47'2 1.1
2014-Jul-22 09:05N 40°06' W 069°48'61 6.8
2014-Jul-22 00:08N 40°57' W 070°31'  
2014-Jul-18 15:22N 40°02' W 069°37'3 2.8
2014-Jul-18 14:20N 40°02' W 069°33'5 0.5
2014-Jul-18 04:06N 39°58' W 069°30'0 0.3
2014-Jul-18 03:32N 39°58' W 069°30'0 0.3
2014-Jul-18 02:20N 39°58' W 069°29'16 2.6
2014-Jul-17 20:09N 40°05' W 069°48'  
2014-Jul-15 02:22N 41°03' W 070°35'  

Dump ship's entire track history